Time;durP1;ratioP1;P1;durP2;ratioP2;P2;SDS_P1;SDS_P2;PMS_P1;PMS_P2;Temp;Humidity;BMP_temperature;BMP_pressure;BME280_temperature;BME280_humidity;BME280_pressure;Samples;Min_cycle;Max_cycle;Signal;HPM_P1;HPM_P2
2022/05/22 00:02:02;;;;;;;0.00;0.00;;;11.90;82.60;;;;;;5071464;28;20042;-67
2022/05/22 00:04:28;;;;;;;0.00;0.00;;;12.00;82.60;;;;;;5071550;28;20052;-67
2022/05/22 00:06:54;;;;;;;0.00;0.00;;;12.00;82.70;;;;;;5087656;28;20047;-67
2022/05/22 00:09:20;;;;;;;0.00;0.00;;;12.00;82.80;;;;;;5081849;28;20477;-65
2022/05/22 00:11:46;;;;;;;0.00;0.00;;;12.00;82.90;;;;;;5083398;28;20072;-67
2022/05/22 00:14:12;;;;;;;0.00;0.00;;;12.00;83.00;;;;;;5090902;28;20098;-67
2022/05/22 00:16:42;;;;;;;0.00;0.00;;;12.00;83.00;;;;;;5090856;28;20458;-67
2022/05/22 00:19:09;;;;;;;2.35;1.45;;;12.00;83.00;;;;;;5082755;28;20040;-68
2022/05/22 00:21:36;;;;;;;0.00;0.00;;;12.10;83.10;;;;;;5078913;28;20123;-68
2022/05/22 00:24:03;;;;;;;0.00;0.00;;;12.10;83.10;;;;;;5075434;28;20044;-67
2022/05/22 00:26:28;;;;;;;0.00;0.00;;;12.10;83.00;;;;;;5072632;28;20049;-67
2022/05/22 00:28:54;;;;;;;0.00;0.00;;;12.10;82.90;;;;;;5090387;28;20527;-67
2022/05/22 00:31:20;;;;;;;0.00;0.00;;;12.10;83.00;;;;;;5089615;28;20044;-67
2022/05/22 00:33:45;;;;;;;0.00;0.00;;;12.10;83.10;;;;;;5090729;28;20097;-68
2022/05/22 00:36:11;;;;;;;0.00;0.00;;;12.10;83.20;;;;;;5075314;28;20048;-68
2022/05/22 00:38:37;;;;;;;0.00;0.00;;;12.10;83.10;;;;;;5072146;28;20040;-68
2022/05/22 00:41:04;;;;;;;0.00;0.00;;;12.00;83.00;;;;;;5089267;28;20119;-67
2022/05/22 00:43:34;;;;;;;0.00;0.00;;;11.90;82.80;;;;;;5090620;28;20040;-68
2022/05/22 00:46:01;;;;;;;0.00;0.00;;;11.80;82.70;;;;;;5090373;28;20123;-68
2022/05/22 00:48:28;;;;;;;0.00;0.00;;;11.70;82.60;;;;;;5089302;28;20403;-67
2022/05/22 00:51:17;;;;;;;0.00;0.00;;;11.70;82.50;;;;;;5078946;28;20041;-68
2022/05/22 00:53:48;;;;;;;0.00;0.00;;;11.60;82.50;;;;;;5074734;28;20089;-68
2022/05/22 00:56:19;;;;;;;0.00;0.00;;;11.60;82.60;;;;;;5093265;28;20105;-68
2022/05/22 00:58:47;;;;;;;0.00;0.00;;;11.60;82.60;;;;;;5095138;28;20428;-67
2022/05/22 01:01:12;;;;;;;0.00;0.00;;;11.60;82.50;;;;;;5093183;28;20040;-67
2022/05/22 01:03:38;;;;;;;0.00;0.00;;;11.60;82.50;;;;;;5076580;28;20409;-67
2022/05/22 01:06:16;;;;;;;0.00;0.00;;;11.60;82.70;;;;;;5085120;28;20089;-68
2022/05/22 01:08:42;;;;;;;0.00;0.00;;;11.50;83.00;;;;;;5079364;28;20106;-67
2022/05/22 01:11:12;;;;;;;0.00;0.00;;;11.50;82.90;;;;;;5089915;28;20058;-67
2022/05/22 01:13:52;;;;;;;0.00;0.00;;;11.50;83.00;;;;;;5091818;28;20064;-67
2022/05/22 01:16:18;;;;;;;0.00;0.00;;;11.40;83.00;;;;;;5092651;28;20067;-67
2022/05/22 01:18:47;;;;;;;0.00;0.00;;;11.40;83.10;;;;;;5094635;28;20056;-67
2022/05/22 01:21:17;;;;;;;0.00;0.00;;;11.30;83.20;;;;;;5094000;28;20079;-67
2022/05/22 01:23:43;;;;;;;0.00;0.00;;;11.30;83.30;;;;;;5087553;28;20044;-68
2022/05/22 01:26:09;;;;;;;0.00;0.00;;;11.30;83.10;;;;;;5092787;28;20155;-67
2022/05/22 01:28:35;;;;;;;0.00;0.00;;;11.30;82.90;;;;;;5089106;28;20040;-67
2022/05/22 01:31:00;;;;;;;0.00;0.00;;;11.20;82.90;;;;;;5088326;28;20041;-68
2022/05/22 01:33:27;;;;;;;0.00;0.00;;;11.20;82.90;;;;;;5094018;28;20051;-68
2022/05/22 01:35:53;;;;;;;0.00;0.00;;;11.10;82.90;;;;;;5093788;28;20062;-68
2022/05/22 01:38:19;;;;;;;0.00;0.00;;;11.10;82.90;;;;;;5075573;28;20063;-69
2022/05/22 01:40:45;;;;;;;0.00;0.00;;;11.10;83.00;;;;;;5081421;28;20040;-68
2022/05/22 01:43:10;;;;;;;0.00;0.00;;;11.10;83.30;;;;;;5094064;28;20050;-69
2022/05/22 01:45:36;;;;;;;0.00;0.00;;;11.10;83.30;;;;;;5089506;28;20117;-68
2022/05/22 01:48:02;;;;;;;0.00;0.00;;;11.20;83.50;;;;;;5088564;28;20142;-68
2022/05/22 01:50:29;;;;;;;0.00;0.00;;;11.20;83.70;;;;;;5093323;28;20089;-69
2022/05/22 01:52:55;;;;;;;0.00;0.00;;;11.20;83.70;;;;;;5094007;28;20041;-67
2022/05/22 01:55:20;;;;;;;0.00;0.00;;;11.20;83.80;;;;;;5093453;28;20489;-69
2022/05/22 01:57:46;;;;;;;0.00;0.00;;;11.20;83.70;;;;;;5092947;28;20047;-68
2022/05/22 02:00:16;;;;;;;0.00;0.00;;;11.10;83.60;;;;;;5094153;28;20032;-67
2022/05/22 02:02:42;;;;;;;0.00;0.00;;;11.10;83.60;;;;;;5081645;28;20040;-68
2022/05/22 02:05:08;;;;;;;0.00;0.00;;;11.10;83.50;;;;;;5073046;28;20041;-68
2022/05/22 02:10:17;;;;;;;0.00;0.00;;;11.00;83.10;;;;;;5082237;28;20044;-69
2022/05/22 02:12:43;;;;;;;0.00;0.00;;;10.90;83.10;;;;;;5091753;28;20051;-69
2022/05/22 02:15:09;;;;;;;0.00;0.00;;;10.90;83.20;;;;;;5093067;28;20101;-68
2022/05/22 02:17:35;;;;;;;0.00;0.00;;;10.90;83.30;;;;;;5091778;28;20063;-68
2022/05/22 02:20:00;;;;;;;0.00;0.00;;;10.90;83.30;;;;;;5107632;28;20044;-68
2022/05/22 02:22:26;;;;;;;0.00;0.00;;;10.90;83.20;;;;;;5083289;28;20127;-69
2022/05/22 02:24:53;;;;;;;0.10;0.10;;;10.90;83.20;;;;;;5072757;28;20063;-68
2022/05/22 02:27:19;;;;;;;0.00;0.00;;;10.90;83.30;;;;;;5072412;28;20695;-68
2022/05/22 02:29:48;;;;;;;0.00;0.00;;;10.90;83.40;;;;;;5073157;28;20504;-68
2022/05/22 02:32:14;;;;;;;0.00;0.00;;;10.90;83.40;;;;;;5074061;28;20048;-67
2022/05/22 02:34:39;;;;;;;0.00;0.00;;;10.90;83.40;;;;;;5084061;28;20048;-68
2022/05/22 02:37:06;;;;;;;0.00;0.00;;;10.90;83.60;;;;;;5092442;28;20058;-67
2022/05/22 02:39:32;;;;;;;0.00;0.00;;;10.90;83.70;;;;;;5092746;28;20051;-67
2022/05/22 02:42:02;;;;;;;0.00;0.00;;;10.90;83.60;;;;;;5092341;28;20058;-68
2022/05/22 02:44:28;;;;;;;0.00;0.00;;;10.90;83.60;;;;;;5092988;28;20055;-68
2022/05/22 02:46:54;;;;;;;0.00;0.00;;;10.80;83.40;;;;;;5088407;28;20388;-68
2022/05/22 02:49:19;;;;;;;0.00;0.00;;;10.80;83.40;;;;;;5079987;28;20123;-68
2022/05/22 02:51:45;;;;;;;0.00;0.00;;;10.70;83.30;;;;;;5083012;28;20051;-68
2022/05/22 02:54:10;;;;;;;0.00;0.00;;;10.80;83.40;;;;;;5083120;28;20036;-68
2022/05/22 02:56:36;;;;;;;0.00;0.00;;;10.70;83.20;;;;;;5080289;28;20080;-67
2022/05/22 02:59:01;;;;;;;0.00;0.00;;;10.60;83.20;;;;;;5078279;28;20045;-67
2022/05/22 03:01:27;;;;;;;0.00;0.00;;;10.60;83.40;;;;;;5072259;28;20041;-67
2022/05/22 03:03:52;;;;;;;0.00;0.00;;;10.60;83.50;;;;;;5072121;28;20440;-67
2022/05/22 03:09:03;;;;;;;0.05;0.05;;;10.60;83.40;;;;;;5072464;28;20056;-68
2022/05/22 03:11:29;;;;;;;0.00;0.00;;;10.70;83.40;;;;;;5087263;28;20058;-68
2022/05/22 03:13:54;;;;;;;0.00;0.00;;;10.60;83.50;;;;;;5092278;28;20103;-68
2022/05/22 03:16:20;;;;;;;0.00;0.00;;;10.70;83.40;;;;;;5091700;28;20090;-68
2022/05/22 03:18:45;;;;;;;0.00;0.00;;;10.60;83.50;;;;;;5072119;28;20040;-68
2022/05/22 03:21:12;;;;;;;0.00;0.00;;;10.70;83.50;;;;;;5076673;28;20044;-67
2022/05/22 03:23:38;;;;;;;0.00;0.00;;;10.70;83.40;;;;;;5085079;28;20051;-69
2022/05/22 03:26:04;;;;;;;0.00;0.00;;;10.60;83.40;;;;;;5092092;28;20039;-68
2022/05/22 03:28:29;;;;;;;0.00;0.00;;;10.60;83.50;;;;;;5092022;28;20438;-69
2022/05/22 03:30:55;;;;;;;0.00;0.00;;;10.60;83.70;;;;;;5090322;28;20097;-68
2022/05/22 03:33:21;;;;;;;0.00;0.00;;;10.60;83.80;;;;;;5091911;28;20519;-68
2022/05/22 03:35:46;;;;;;;0.00;0.00;;;10.60;83.80;;;;;;5090745;28;20698;-68
2022/05/22 03:38:12;;;;;;;0.00;0.00;;;10.60;83.90;;;;;;5090939;28;20141;-68
2022/05/22 03:40:42;;;;;;;0.00;0.00;;;10.60;83.70;;;;;;5089930;28;20048;-68
2022/05/22 03:43:07;;;;;;;0.00;0.00;;;10.60;83.60;;;;;;5081268;28;20051;-67
2022/05/22 03:45:33;;;;;;;0.00;0.00;;;10.60;83.70;;;;;;5090120;28;20036;-68
2022/05/22 03:47:58;;;;;;;0.00;0.00;;;10.60;83.80;;;;;;5076580;28;20123;-67
2022/05/22 03:50:24;;;;;;;0.00;0.00;;;10.60;83.80;;;;;;5079526;28;20408;-67
2022/05/22 03:52:51;;;;;;;0.00;0.00;;;10.60;83.90;;;;;;5089831;28;20036;-67
2022/05/22 03:55:17;;;;;;;0.00;0.00;;;10.60;84.00;;;;;;5073516;28;20041;-67
2022/05/22 03:57:47;;;;;;;0.00;0.00;;;10.70;84.00;;;;;;5069580;28;20082;-67
2022/05/22 04:00:14;;;;;;;0.00;0.00;;;10.70;83.90;;;;;;5072512;28;20382;-67
2022/05/22 04:02:40;;;;;;;0.00;0.00;;;10.60;83.80;;;;;;5077175;28;20036;-68
2022/05/22 04:05:08;;;;;;;0.00;0.00;;;10.70;83.80;;;;;;5085283;28;20059;-67
2022/05/22 04:07:43;;;;;;;0.00;0.00;;;10.60;83.90;;;;;;5085355;28;20037;-67
2022/05/22 04:10:10;;;;;;;0.00;0.00;;;10.70;84.00;;;;;;5074534;28;20126;-67
2022/05/22 04:12:37;;;;;;;0.00;0.00;;;10.60;84.00;;;;;;5072053;28;20090;-67
2022/05/22 04:15:04;;;;;;;0.00;0.00;;;10.60;83.90;;;;;;5069467;28;20812;-67
2022/05/22 04:17:30;;;;;;;0.00;0.00;;;10.60;84.00;;;;;;5084556;28;20396;-67
2022/05/22 04:19:55;;;;;;;0.00;0.00;;;10.60;84.00;;;;;;5071943;28;20036;-68
2022/05/22 04:22:21;;;;;;;0.00;0.00;;;10.60;84.00;;;;;;5086659;28;20496;-68
2022/05/22 04:27:31;;;;;;;0.00;0.00;;;10.70;84.30;;;;;;5081916;28;20127;-68
2022/05/22 04:29:56;;;;;;;0.00;0.00;;;10.70;84.40;;;;;;5089533;28;20612;-68
2022/05/22 04:32:22;;;;;;;0.00;0.00;;;10.70;84.30;;;;;;5090790;28;20758;-68
2022/05/22 04:34:47;;;;;;;0.00;0.00;;;10.70;84.40;;;;;;5089657;28;20040;-68
2022/05/22 04:37:13;;;;;;;0.00;0.00;;;10.70;84.30;;;;;;5072036;28;20420;-68
2022/05/22 04:39:39;;;;;;;0.00;0.00;;;10.70;84.20;;;;;;5090466;28;20126;-68
2022/05/22 04:42:05;;;;;;;0.00;0.00;;;10.80;84.20;;;;;;5080629;28;20075;-68
2022/05/22 04:44:31;;;;;;;0.00;0.00;;;10.80;84.30;;;;;;5070101;28;20040;-68
2022/05/22 04:46:59;;;;;;;0.00;0.00;;;10.90;84.20;;;;;;5074859;28;20090;-68
2022/05/22 04:49:25;;;;;;;0.00;0.00;;;10.90;84.10;;;;;;5077408;28;20052;-68
2022/05/22 04:51:51;;;;;;;0.00;0.00;;;10.90;84.20;;;;;;5082387;28;20420;-68
2022/05/22 04:54:16;;;;;;;0.00;0.00;;;10.90;84.40;;;;;;5079803;28;20040;-68
2022/05/22 04:56:42;;;;;;;0.00;0.00;;;10.90;84.40;;;;;;5082025;28;20036;-68
2022/05/22 04:59:07;;;;;;;0.00;0.00;;;11.00;84.40;;;;;;5076712;28;20093;-68
2022/05/22 05:01:33;;;;;;;0.00;0.00;;;11.00;84.40;;;;;;5078502;28;20054;-68
2022/05/22 05:03:59;;;;;;;0.00;0.00;;;11.00;84.40;;;;;;5076112;28;20040;-68
2022/05/22 05:06:30;;;;;;;0.00;0.00;;;11.00;84.40;;;;;;5077688;28;20072;-68
2022/05/22 05:08:56;;;;;;;0.00;0.00;;;11.10;84.50;;;;;;5080797;28;20044;-69
2022/05/22 05:11:22;;;;;;;0.00;0.00;;;11.10;84.40;;;;;;5081238;28;20035;-68
2022/05/22 05:13:47;;;;;;;0.00;0.00;;;11.10;84.70;;;;;;5078873;28;20055;-68
2022/05/22 05:16:14;;;;;;;0.00;0.00;;;11.20;84.80;;;;;;5078558;28;20083;-68
2022/05/22 05:18:40;;;;;;;0.10;0.10;;;11.30;84.80;;;;;;5079030;28;20058;-68
2022/05/22 05:21:08;;;;;;;0.00;0.00;;;11.30;85.10;;;;;;5081203;28;20032;-67
2022/05/22 05:23:34;;;;;;;0.00;0.00;;;11.50;85.20;;;;;;5090776;28;20102;-68
2022/05/22 05:26:00;;;;;;;0.00;0.00;;;11.50;85.30;;;;;;5077581;28;20032;-68
2022/05/22 05:28:26;;;;;;;0.00;0.00;;;11.60;85.60;;;;;;5078518;28;20043;-68
2022/05/22 05:30:52;;;;;;;0.10;0.10;;;11.70;85.80;;;;;;5081474;28;20047;-68
2022/05/22 05:33:18;;;;;;;0.00;0.00;;;11.80;86.40;;;;;;5086949;28;20044;-68
2022/05/22 05:35:44;;;;;;;0.00;0.00;;;11.80;86.70;;;;;;5076690;28;20102;-69
2022/05/22 05:38:10;;;;;;;0.00;0.00;;;11.90;86.70;;;;;;5076251;28;20044;-68
2022/05/22 05:40:36;;;;;;;0.47;0.47;;;12.00;86.60;;;;;;5091309;28;20130;-69
2022/05/22 05:43:03;;;;;;;0.00;0.00;;;12.10;86.50;;;;;;5084672;28;20174;-70
2022/05/22 05:45:30;;;;;;;0.00;0.00;;;12.10;86.60;;;;;;5085838;28;20040;-70
2022/05/22 05:47:57;;;;;;;0.00;0.00;;;12.20;86.60;;;;;;5087414;28;20089;-69
2022/05/22 05:50:26;;;;;;;0.00;0.00;;;12.30;86.60;;;;;;5079652;28;20128;-69
2022/05/22 05:52:58;;;;;;;0.00;0.00;;;12.40;86.50;;;;;;5073804;28;20084;-68
2022/05/22 05:55:24;;;;;;;0.00;0.00;;;12.50;86.70;;;;;;5074048;28;20048;-68
2022/05/22 05:57:50;;;;;;;0.00;0.00;;;12.60;86.60;;;;;;5073519;28;20040;-68
2022/05/22 06:00:19;;;;;;;0.00;0.00;;;12.60;86.50;;;;;;5073238;28;20044;-68
2022/05/22 06:02:44;;;;;;;0.00;0.00;;;12.70;86.50;;;;;;5086847;28;20028;-68
2022/05/22 06:05:12;;;;;;;0.00;0.00;;;12.70;86.40;;;;;;5081291;28;20036;-68
2022/05/22 06:07:37;;;;;;;0.03;0.03;;;12.80;86.50;;;;;;5078084;28;20102;-68
2022/05/22 06:10:05;;;;;;;0.00;0.00;;;12.90;86.50;;;;;;5072764;28;20048;-68
2022/05/22 06:12:31;;;;;;;0.00;0.00;;;12.90;86.40;;;;;;5072457;28;20044;-68
2022/05/22 06:14:56;;;;;;;0.00;0.00;;;13.00;86.50;;;;;;5097813;28;20388;-67
2022/05/22 06:17:48;;;;;;;0.00;0.00;;;13.10;86.40;;;;;;5082148;28;20052;-68
2022/05/22 06:20:16;;;;;;;;;;;13.10;86.50;;;;;;5090796;28;20048;-67
2022/05/22 06:22:44;;;;;;;0.00;0.00;;;13.20;86.30;;;;;;5089967;28;19920;-68
2022/05/22 06:25:12;;;;;;;0.00;0.00;;;13.20;86.20;;;;;;5073467;28;20063;-68
2022/05/22 06:27:38;;;;;;;0.00;0.00;;;13.30;86.10;;;;;;5084940;28;20044;-67
2022/05/22 06:30:04;;;;;;;0.00;0.00;;;13.40;86.10;;;;;;5082377;28;20389;-66
2022/05/22 06:32:30;;;;;;;0.00;0.00;;;13.40;86.10;;;;;;5071869;28;20048;-67
2022/05/22 06:34:58;;;;;;;0.00;0.00;;;13.50;86.10;;;;;;5083765;28;20039;-69
2022/05/22 06:37:24;;;;;;;0.00;0.00;;;13.50;86.00;;;;;;5088330;28;20052;-69
2022/05/22 06:39:54;;;;;;;1.65;1.55;;;13.60;86.00;;;;;;5078374;28;20041;-69
2022/05/22 06:42:28;;;;;;;0.00;0.00;;;13.60;85.90;;;;;;5072588;28;20121;-69
2022/05/22 06:45:13;;;;;;;7.03;0.30;;;13.60;85.60;;;;;;5085908;28;20075;-69
2022/05/22 06:47:40;;;;;;;0.00;0.00;;;13.70;85.20;;;;;;5072886;28;20048;-69
2022/05/22 06:50:10;;;;;;;0.00;0.00;;;13.80;85.00;;;;;;5076176;28;20052;-70
2022/05/22 06:52:36;;;;;;;0.00;0.00;;;13.80;84.90;;;;;;5086301;28;20088;-68
2022/05/22 06:55:03;;;;;;;0.00;0.00;;;13.90;84.90;;;;;;5091827;28;20049;-68
2022/05/22 06:57:29;;;;;;;0.00;0.00;;;14.00;85.00;;;;;;5085820;28;20132;-68
2022/05/22 06:59:58;;;;;;;0.00;0.00;;;14.10;85.00;;;;;;5072819;28;20131;-68
2022/05/22 07:02:29;;;;;;;0.00;0.00;;;14.10;84.80;;;;;;5076599;28;20053;-68
2022/05/22 07:04:59;;;;;;;0.00;0.00;;;14.10;84.60;;;;;;5091998;28;20036;-68
2022/05/22 07:07:25;;;;;;;0.00;0.00;;;14.20;84.70;;;;;;5093238;28;20056;-68
2022/05/22 07:09:51;;;;;;;0.00;0.00;;;14.30;84.40;;;;;;5088938;28;20055;-69
2022/05/22 07:12:18;;;;;;;0.00;0.00;;;14.30;84.20;;;;;;5087259;28;20040;-68
2022/05/22 07:14:44;;;;;;;0.00;0.00;;;14.40;83.90;;;;;;5077441;28;20040;-68
2022/05/22 07:17:12;;;;;;;0.00;0.00;;;14.40;83.10;;;;;;5072083;28;20044;-66
2022/05/22 07:19:38;;;;;;;0.00;0.00;;;14.50;82.90;;;;;;5071082;28;20056;-66
2022/05/22 07:22:05;;;;;;;0.00;0.00;;;14.60;82.50;;;;;;5074467;28;20033;-66
2022/05/22 07:24:31;;;;;;;0.00;0.00;;;14.60;82.30;;;;;;5074760;28;20062;-66
2022/05/22 07:26:57;;;;;;;0.00;0.00;;;14.70;82.10;;;;;;5086068;28;20044;-66
2022/05/22 07:29:23;;;;;;;0.00;0.00;;;14.70;81.80;;;;;;5085473;28;20048;-66
2022/05/22 07:31:48;;;;;;;0.00;0.00;;;14.80;81.50;;;;;;5070268;28;20052;-67
2022/05/22 07:34:14;;;;;;;0.00;0.00;;;14.90;81.10;;;;;;5089470;28;20417;-67
2022/05/22 07:36:40;;;;;;;0.00;0.00;;;14.90;80.80;;;;;;5078642;28;20072;-67
2022/05/22 07:39:06;;;;;;;0.20;0.20;;;15.00;80.70;;;;;;5077750;28;20082;-66
2022/05/22 07:41:31;;;;;;;0.00;0.00;;;15.10;80.60;;;;;;5070929;28;20043;-66
2022/05/22 07:43:58;;;;;;;0.00;0.00;;;15.10;80.60;;;;;;5072137;28;20472;-66
2022/05/22 07:46:24;;;;;;;0.00;0.00;;;15.10;80.00;;;;;;5090810;28;20092;-65
2022/05/22 07:48:50;;;;;;;0.77;0.57;;;15.20;80.10;;;;;;5080929;28;20040;-66
2022/05/22 07:51:16;;;;;;;0.00;0.00;;;15.30;80.10;;;;;;5074434;28;20043;-65
2022/05/22 07:53:42;;;;;;;0.00;0.00;;;15.30;79.60;;;;;;5084403;28;20462;-66
2022/05/22 07:56:08;;;;;;;0.00;0.00;;;15.30;79.10;;;;;;5089509;28;20060;-64
2022/05/22 07:58:34;;;;;;;0.00;0.00;;;15.40;79.20;;;;;;5075045;28;20055;-66
2022/05/22 08:01:01;;;;;;;0.05;0.05;;;15.50;78.30;;;;;;5087338;28;20561;-66
2022/05/22 08:03:27;;;;;;;0.00;0.00;;;15.50;78.10;;;;;;5088506;28;20119;-66
2022/05/22 08:05:55;;;;;;;0.00;0.00;;;15.60;78.10;;;;;;5074013;28;20115;-65
2022/05/22 08:08:21;;;;;;;0.00;0.00;;;15.70;77.50;;;;;;5075312;28;20045;-66
2022/05/22 08:10:47;;;;;;;0.00;0.00;;;15.70;77.60;;;;;;5089695;28;20047;-66
2022/05/22 08:13:13;;;;;;;0.00;0.00;;;15.80;76.30;;;;;;5084383;28;20040;-65
2022/05/22 08:15:41;;;;;;;0.00;0.00;;;15.80;76.20;;;;;;5081476;28;20173;-66
2022/05/22 08:18:07;;;;;;;0.00;0.00;;;15.90;76.80;;;;;;5090161;28;20071;-66
2022/05/22 08:20:36;;;;;;;0.00;0.00;;;15.90;75.00;;;;;;5088860;28;20043;-65
2022/05/22 08:23:05;;;;;;;0.00;0.00;;;16.00;75.70;;;;;;5078101;28;20044;-67
2022/05/22 08:25:32;;;;;;;0.10;0.10;;;16.00;76.10;;;;;;5080691;28;20044;-66
2022/05/22 08:27:58;;;;;;;0.40;0.40;;;16.10;76.10;;;;;;5086451;28;20046;-67
2022/05/22 08:30:26;;;;;;;0.25;0.25;;;16.10;74.80;;;;;;5071889;28;20446;-67
2022/05/22 08:32:52;;;;;;;0.05;0.05;;;16.20;75.30;;;;;;5073944;28;20035;-67
2022/05/22 08:35:23;;;;;;;0.10;0.10;;;16.30;75.70;;;;;;5076171;28;20386;-67
2022/05/22 08:37:48;;;;;;;0.00;0.00;;;16.20;74.50;;;;;;5069840;28;20538;-67
2022/05/22 08:40:16;;;;;;;0.00;0.00;;;16.30;74.60;;;;;;5083244;28;20040;-67
2022/05/22 08:42:47;;;;;;;0.00;0.00;;;16.30;74.40;;;;;;5075606;28;20049;-67
2022/05/22 08:45:24;;;;;;;0.20;0.20;;;16.50;75.60;;;;;;5075154;28;20174;-67
2022/05/22 08:48:05;;;;;;;0.10;0.10;;;16.50;75.20;;;;;;5068922;28;20457;-67
2022/05/22 08:50:32;;;;;;;2.85;0.60;;;16.50;74.30;;;;;;5070396;28;20059;-67
2022/05/22 08:53:04;;;;;;;0.00;0.00;;;16.50;74.80;;;;;;5083925;28;20396;-65
2022/05/22 08:59:02;;;;;;;0.00;0.00;;;16.40;73.80;;;;;;5075064;28;19920;-67
2022/05/22 09:01:40;;;;;;;0.00;0.00;;;16.50;74.40;;;;;;5084530;28;20042;-66
2022/05/22 09:04:26;;;;;;;0.00;0.00;;;16.50;74.70;;;;;;5085492;28;20041;-66
2022/05/22 09:07:04;;;;;;;0.00;0.00;;;16.70;75.00;;;;;;5084405;28;20050;-67
2022/05/22 09:09:32;;;;;;;1.02;0.93;;;16.80;73.60;;;;;;5090174;28;20501;-67
2022/05/22 09:12:16;;;;;;;0.00;0.00;;;16.80;72.80;;;;;;5088122;28;20048;-66
2022/05/22 09:14:47;;;;;;;0.00;0.00;;;17.00;72.00;;;;;;5090042;28;20047;-67
2022/05/22 09:17:17;;;;;;;0.00;0.00;;;17.10;72.90;;;;;;5082245;28;20056;-67
2022/05/22 09:19:54;;;;;;;0.00;0.00;;;17.10;72.40;;;;;;5073263;28;20045;-67
2022/05/22 09:22:24;;;;;;;0.05;0.05;;;17.20;72.10;;;;;;5089456;28;20115;-67
2022/05/22 09:25:19;;;;;;;9.73;0.65;;;17.30;71.50;;;;;;5088874;28;20040;-67
2022/05/22 09:28:15;;;;;;;0.00;0.00;;;17.40;70.40;;;;;;5093344;28;20040;-67
2022/05/22 09:31:19;;;;;;;0.00;0.00;;;17.40;69.70;;;;;;5091546;28;20048;-67
2022/05/22 09:34:14;;;;;;;0.00;0.00;;;17.50;68.50;;;;;;5093401;28;20047;-67
2022/05/22 09:36:46;;;;;;;0.00;0.00;;;17.50;67.90;;;;;;5084324;28;20123;-66
2022/05/22 09:39:17;;;;;;;0.00;0.00;;;17.60;69.60;;;;;;5093787;28;20508;-67
2022/05/22 09:41:43;;;;;;;;;;;17.60;67.60;;;;;;5090295;28;20040;-67
2022/05/22 09:44:20;;;;;;;0.00;0.00;;;17.70;68.70;;;;;;5093811;28;19920;-68
2022/05/22 09:47:00;;;;;;;0.00;0.00;;;17.80;68.10;;;;;;5078542;28;20040;-67
2022/05/22 09:49:55;;;;;;;1.13;0.73;;;17.80;66.70;;;;;;5080340;28;20044;-67
2022/05/22 09:52:29;;;;;;;0.00;0.00;;;17.80;64.80;;;;;;5087498;28;20518;-68
2022/05/22 09:55:02;;;;;;;0.00;0.00;;;17.80;66.00;;;;;;5084836;28;20098;-66
2022/05/22 09:57:58;;;;;;;0.00;0.00;;;17.90;67.10;;;;;;5085684;28;20500;-67
2022/05/22 10:00:39;;;;;;;0.00;0.00;;;17.90;65.40;;;;;;5092485;28;20558;-67
2022/05/22 10:03:41;;;;;;;0.00;0.00;;;17.90;62.70;;;;;;5087682;28;20062;-66
2022/05/22 10:06:44;;;;;;;0.22;0.22;;;18.00;65.40;;;;;;5085790;28;20056;-68
2022/05/22 10:09:36;;;;;;;0.00;0.00;;;18.00;61.50;;;;;;5090685;28;20115;-67
2022/05/22 10:12:33;;;;;;;0.00;0.00;;;18.00;61.10;;;;;;5092344;28;20101;-66
2022/05/22 10:15:37;;;;;;;0.00;0.00;;;18.10;60.60;;;;;;5072788;28;20082;-67
2022/05/22 10:18:08;;;;;;;0.00;0.00;;;18.10;62.90;;;;;;5075123;28;20064;-67
2022/05/22 10:21:19;;;;;;;0.00;0.00;;;18.30;62.30;;;;;;5087548;28;20563;-71
2022/05/22 10:23:57;;;;;;;0.00;0.00;;;18.30;60.20;;;;;;5086236;28;20052;-69
2022/05/22 10:26:44;;;;;;;0.00;0.00;;;18.50;60.90;;;;;;5077070;28;20116;-68
2022/05/22 10:29:24;;;;;;;0.03;0.03;;;18.50;61.40;;;;;;5072109;28;20040;-70
2022/05/22 10:31:56;;;;;;;0.00;0.00;;;18.50;60.80;;;;;;5073554;28;20055;-68
2022/05/22 10:34:39;;;;;;;;;;;18.50;61.10;;;;;;5072959;28;20045;-69
2022/05/22 10:37:37;;;;;;;0.00;0.00;;;18.50;61.20;;;;;;5072872;28;19978;-69
2022/05/22 10:40:07;;;;;;;0.00;0.00;;;18.60;62.70;;;;;;5072828;28;20047;-69
2022/05/22 10:42:45;;;;;;;0.00;0.00;;;18.70;61.70;;;;;;5071670;28;20040;-69
2022/05/22 10:45:22;;;;;;;0.00;0.00;;;18.70;61.70;;;;;;5073195;28;20047;-69
2022/05/22 10:47:50;;;;;;;0.00;0.00;;;18.70;58.70;;;;;;5072946;28;20052;-68
2022/05/22 10:50:16;;;;;;;0.00;0.00;;;18.60;58.50;;;;;;5072019;28;20044;-68
2022/05/22 10:52:41;;;;;;;0.00;0.00;;;18.70;61.00;;;;;;5072771;28;20102;-69
2022/05/22 10:55:33;;;;;;;0.00;0.00;;;18.80;58.00;;;;;;5072737;28;20048;-69
2022/05/22 10:58:04;;;;;;;0.00;0.00;;;18.90;58.80;;;;;;5072176;28;20052;-69
2022/05/22 11:00:31;;;;;;;0.00;0.00;;;18.90;56.80;;;;;;5079740;28;20067;-68
2022/05/22 11:03:12;;;;;;;0.00;0.00;;;19.00;58.50;;;;;;5083095;28;20110;-68
2022/05/22 11:05:37;;;;;;;0.00;0.00;;;19.10;59.20;;;;;;5092362;28;20036;-67
2022/05/22 11:08:03;;;;;;;0.00;0.00;;;19.10;60.20;;;;;;5072091;28;20050;-68
2022/05/22 11:10:35;;;;;;;0.00;0.00;;;19.00;54.00;;;;;;5078121;28;20044;-67
2022/05/22 11:13:04;;;;;;;0.00;0.00;;;19.10;55.80;;;;;;5085832;28;20036;-68
2022/05/22 11:15:33;;;;;;;0.00;0.00;;;19.10;56.00;;;;;;5082338;28;20036;-68
2022/05/22 11:18:23;;;;;;;0.00;0.00;;;19.10;57.60;;;;;;5081178;28;20403;-67
2022/05/22 11:20:59;;;;;;;0.00;0.00;;;19.00;56.60;;;;;;5078466;28;20063;-67
2022/05/22 11:23:59;;;;;;;0.00;0.00;;;19.10;57.50;;;;;;5077260;28;20066;-68
2022/05/22 11:26:52;;;;;;;0.10;0.10;;;19.10;59.60;;;;;;5071695;28;20052;-67
2022/05/22 11:29:57;;;;;;;0.00;0.00;;;19.20;60.30;;;;;;5077254;28;20099;-71
2022/05/22 11:32:47;;;;;;;0.00;0.00;;;19.50;59.60;;;;;;5085193;28;20052;-69
2022/05/22 11:35:44;;;;;;;0.00;0.00;;;19.60;57.60;;;;;;5077088;28;20044;-70
2022/05/22 11:38:37;;;;;;;0.00;0.00;;;19.60;58.40;;;;;;5090069;28;20044;-67
2022/05/22 11:41:34;;;;;;;0.00;0.00;;;19.60;59.80;;;;;;5081732;28;20200;-68
2022/05/22 11:44:19;;;;;;;0.00;0.00;;;19.80;56.90;;;;;;5078577;28;20050;-70
2022/05/22 11:47:00;;;;;;;0.52;0.52;;;19.80;59.00;;;;;;5090431;28;20048;-69
2022/05/22 11:49:32;;;;;;;0.00;0.00;;;19.80;58.30;;;;;;5081432;28;20119;-69
2022/05/22 11:52:53;;;;;;;0.32;0.32;;;19.80;57.40;;;;;;5072611;28;21259;-69
2022/05/22 11:55:21;;;;;;;0.00;0.00;;;19.90;59.80;;;;;;5077081;28;20048;-69
2022/05/22 11:58:09;;;;;;;0.00;0.00;;;20.00;60.10;;;;;;5089667;28;20051;-70
2022/05/22 12:01:03;;;;;;;0.00;0.00;;;20.10;59.40;;;;;;5078459;28;20040;-69
2022/05/22 12:04:26;;;;;;;0.20;0.20;;;20.20;57.10;;;;;;5076014;28;20779;-69
2022/05/22 12:06:58;;;;;;;0.00;0.00;;;20.30;57.50;;;;;;5048607;28;20050;-69
2022/05/22 12:10:01;;;;;;;0.00;0.00;;;20.40;55.80;;;;;;5064994;28;20080;-69
2022/05/22 12:12:42;;;;;;;0.00;0.00;;;20.50;57.60;;;;;;5070691;28;20056;-69
2022/05/22 12:15:35;;;;;;;0.00;0.00;;;20.60;58.10;;;;;;5089641;28;20052;-70
2022/05/22 12:18:19;;;;;;;0.00;0.00;;;20.60;53.80;;;;;;5090958;28;20568;-70
2022/05/22 12:21:09;;;;;;;0.00;0.00;;;20.60;52.30;;;;;;5091280;28;20051;-69
2022/05/22 12:23:55;;;;;;;0.00;0.00;;;20.80;54.90;;;;;;5084217;28;20047;-70
2022/05/22 12:26:25;;;;;;;0.00;0.00;;;20.80;52.10;;;;;;5071149;28;20048;-70
2022/05/22 12:29:16;;;;;;;0.00;0.00;;;20.90;52.90;;;;;;5079882;28;20043;-70
2022/05/22 12:31:53;;;;;;;0.00;0.00;;;20.80;54.30;;;;;;5090969;28;20052;-69
2022/05/22 12:34:58;;;;;;;0.15;0.15;;;20.90;53.80;;;;;;5080217;28;20049;-70
2022/05/22 12:37:28;;;;;;;0.00;0.00;;;20.80;55.10;;;;;;5070924;28;20072;-68
2022/05/22 12:40:18;;;;;;;0.00;0.00;;;20.80;55.30;;;;;;5072734;28;20044;-68
2022/05/22 12:42:54;;;;;;;0.10;0.10;;;20.70;54.90;;;;;;5087062;28;20053;-69
2022/05/22 12:45:23;;;;;;;0.00;0.00;;;20.70;51.80;;;;;;5080576;28;20077;-68
2022/05/22 12:47:52;;;;;;;0.00;0.00;;;20.80;52.10;;;;;;5081228;28;20055;-68
2022/05/22 12:50:46;;;;;;;0.00;0.00;;;21.00;54.40;;;;;;5081917;28;20429;-69
2022/05/22 12:53:30;;;;;;;0.00;0.00;;;21.10;56.40;;;;;;5064140;28;20713;-67
2022/05/22 12:56:05;;;;;;;0.00;0.00;;;21.20;55.60;;;;;;5075901;28;20040;-68
2022/05/22 12:58:42;;;;;;;0.00;0.00;;;21.40;51.90;;;;;;5080079;28;20137;-68
2022/05/22 13:01:42;;;;;;;0.00;0.00;;;21.60;52.60;;;;;;5060908;28;20489;-68
2022/05/22 13:04:17;;;;;;;0.00;0.00;;;21.80;51.40;;;;;;5078697;28;20060;-69
2022/05/22 13:06:45;;;;;;;0.00;0.00;;;21.90;49.10;;;;;;5090286;28;20519;-68
2022/05/22 13:09:23;;;;;;;0.08;0.08;;;22.00;51.60;;;;;;5090716;28;20040;-69
2022/05/22 13:11:54;;;;;;;0.00;0.00;;;22.10;50.00;;;;;;5080643;28;20055;-68
2022/05/22 13:14:26;;;;;;;;;;;22.20;53.30;;;;;;5077442;28;20040;-68
2022/05/22 13:16:52;;;;;;;;;;;22.20;51.90;;;;;;5080270;28;19927;-68
2022/05/22 13:19:23;;;;;;;0.00;0.00;;;22.20;51.50;;;;;;5074894;28;19920;-68
2022/05/22 13:21:49;;;;;;;0.00;0.00;;;22.40;50.60;;;;;;5078145;28;20751;-68
2022/05/22 13:24:15;;;;;;;0.00;0.00;;;22.40;49.70;;;;;;5078120;28;20033;-68